sensor_id;sensor_type;location;lat;lon;timestamp;P1;durP1;ratioP1;P2;durP2;ratioP2
81815;SDS011;71249;52.084;5.304;2023-12-20T00:01:32;14.2;;;3.5;;
81815;SDS011;71249;52.084;5.304;2023-12-20T00:03:08;15.4;;;3.4;;
81815;SDS011;71249;52.084;5.304;2023-12-20T00:06:20;11.8;;;3.3;;
81815;SDS011;71249;52.084;5.304;2023-12-20T00:07:56;15.5;;;3.0;;
81815;SDS011;71249;52.084;5.304;2023-12-20T00:09:32;17.3;;;3.9;;
81815;SDS011;71249;52.084;5.304;2023-12-20T00:12:44;9.5;;;2.8;;
81815;SDS011;71249;52.084;5.304;2023-12-20T00:14:20;12.7;;;3.1;;
81815;SDS011;71249;52.084;5.304;2023-12-20T00:15:56;10.8;;;2.9;;
81815;SDS011;71249;52.084;5.304;2023-12-20T00:17:32;14.4;;;3.5;;
81815;SDS011;71249;52.084;5.304;2023-12-20T00:20:45;15.9;;;3.5;;
81815;SDS011;71249;52.084;5.304;2023-12-20T00:22:21;13.9;;;2.8;;
81815;SDS011;71249;52.084;5.304;2023-12-20T00:23:57;15.9;;;2.9;;
81815;SDS011;71249;52.084;5.304;2023-12-20T00:27:09;13.7;;;3.5;;
81815;SDS011;71249;52.084;5.304;2023-12-20T00:28:45;13.6;;;3.7;;
81815;SDS011;71249;52.084;5.304;2023-12-20T00:30:21;16.61;;;3.5;;
81815;SDS011;71249;52.084;5.304;2023-12-20T00:33:33;18.61;;;2.8;;
81815;SDS011;71249;52.084;5.304;2023-12-20T00:35:10;19.7;;;3.4;;
81815;SDS011;71249;52.084;5.304;2023-12-20T00:36:46;12.2;;;2.9;;
81815;SDS011;71249;52.084;5.304;2023-12-20T00:39:58;15.7;;;3.3;;
81815;SDS011;71249;52.084;5.304;2023-12-20T00:41:37;9.5;;;3.1;;
81815;SDS011;71249;52.084;5.304;2023-12-20T00:43:13;14.7;;;3.2;;
81815;SDS011;71249;52.084;5.304;2023-12-20T00:44:49;12.3;;;3.1;;
81815;SDS011;71249;52.084;5.304;2023-12-20T00:48:01;12.0;;;2.8;;
81815;SDS011;71249;52.084;5.304;2023-12-20T00:49:37;14.4;;;3.0;;
81815;SDS011;71249;52.084;5.304;2023-12-20T00:51:13;10.5;;;2.31;;
81815;SDS011;71249;52.084;5.304;2023-12-20T00:54:26;14.2;;;2.8;;
81815;SDS011;71249;52.084;5.304;2023-12-20T00:56:02;16.0;;;3.2;;
81815;SDS011;71249;52.084;5.304;2023-12-20T00:57:38;16.5;;;2.8;;
81815;SDS011;71249;52.084;5.304;2023-12-20T01:00:52;14.4;;;3.1;;
81815;SDS011;71249;52.084;5.304;2023-12-20T01:02:28;11.3;;;2.7;;
81815;SDS011;71249;52.084;5.304;2023-12-20T01:04:04;12.2;;;3.1;;
81815;SDS011;71249;52.084;5.304;2023-12-20T01:05:41;9.9;;;3.0;;
81815;SDS011;71249;52.084;5.304;2023-12-20T01:08:53;10.8;;;3.0;;
81815;SDS011;71249;52.084;5.304;2023-12-20T01:10:29;13.4;;;2.7;;
81815;SDS011;71249;52.084;5.304;2023-12-20T01:12:05;9.31;;;3.1;;
81815;SDS011;71249;52.084;5.304;2023-12-20T01:15:18;9.5;;;2.7;;
81815;SDS011;71249;52.084;5.304;2023-12-20T01:16:54;9.0;;;2.4;;
81815;SDS011;71249;52.084;5.304;2023-12-20T01:18:30;11.1;;;2.9;;
81815;SDS011;71249;52.084;5.304;2023-12-20T01:21:43;6.9;;;2.6;;
81815;SDS011;71249;52.084;5.304;2023-12-20T01:23:19;9.71;;;2.7;;
81815;SDS011;71249;52.084;5.304;2023-12-20T01:24:55;8.9;;;2.7;;
81815;SDS011;71249;52.084;5.304;2023-12-20T01:26:31;13.6;;;3.3;;
81815;SDS011;71249;52.084;5.304;2023-12-20T01:29:44;13.2;;;3.1;;
81815;SDS011;71249;52.084;5.304;2023-12-20T01:31:20;14.1;;;3.2;;
81815;SDS011;71249;52.084;5.304;2023-12-20T01:32:56;14.4;;;2.9;;
81815;SDS011;71249;52.084;5.304;2023-12-20T01:36:08;10.6;;;2.6;;
81815;SDS011;71249;52.084;5.304;2023-12-20T01:37:44;11.4;;;2.6;;
81815;SDS011;71249;52.084;5.304;2023-12-20T01:39:20;17.7;;;3.6;;
81815;SDS011;71249;52.084;5.304;2023-12-20T01:42:33;14.2;;;3.0;;
81815;SDS011;71249;52.084;5.304;2023-12-20T01:44:09;14.2;;;3.0;;
81815;SDS011;71249;52.084;5.304;2023-12-20T01:45:45;11.7;;;3.2;;
81815;SDS011;71249;52.084;5.304;2023-12-20T01:48:58;15.6;;;3.8;;
81815;SDS011;71249;52.084;5.304;2023-12-20T01:50:35;15.1;;;3.3;;
81815;SDS011;71249;52.084;5.304;2023-12-20T01:52:12;15.2;;;3.2;;
81815;SDS011;71249;52.084;5.304;2023-12-20T01:53:48;15.9;;;3.6;;
81815;SDS011;71249;52.084;5.304;2023-12-20T01:57:03;18.61;;;3.8;;
81815;SDS011;71249;52.084;5.304;2023-12-20T01:58:43;13.5;;;2.9;;
81815;SDS011;71249;52.084;5.304;2023-12-20T02:00:24;14.5;;;3.4;;
81815;SDS011;71249;52.084;5.304;2023-12-20T02:03:39;15.3;;;4.1;;
81815;SDS011;71249;52.084;5.304;2023-12-20T02:05:16;14.0;;;3.3;;
81815;SDS011;71249;52.084;5.304;2023-12-20T02:06:53;13.1;;;2.7;;
81815;SDS011;71249;52.084;5.304;2023-12-20T02:08:31;11.4;;;3.0;;
81815;SDS011;71249;52.084;5.304;2023-12-20T02:11:43;12.8;;;2.8;;
81815;SDS011;71249;52.084;5.304;2023-12-20T02:13:20;14.4;;;3.1;;
81815;SDS011;71249;52.084;5.304;2023-12-20T02:14:56;9.81;;;2.7;;
81815;SDS011;71249;52.084;5.304;2023-12-20T02:18:08;10.21;;;2.6;;
81815;SDS011;71249;52.084;5.304;2023-12-20T02:19:44;11.2;;;3.1;;
81815;SDS011;71249;52.084;5.304;2023-12-20T02:21:23;15.2;;;2.9;;
81815;SDS011;71249;52.084;5.304;2023-12-20T02:23:03;14.6;;;3.1;;
81815;SDS011;71249;52.084;5.304;2023-12-20T02:26:15;14.1;;;3.4;;
81815;SDS011;71249;52.084;5.304;2023-12-20T02:27:52;13.8;;;3.3;;
81815;SDS011;71249;52.084;5.304;2023-12-20T02:29:29;14.7;;;3.1;;
81815;SDS011;71249;52.084;5.304;2023-12-20T02:32:41;14.7;;;3.1;;
81815;SDS011;71249;52.084;5.304;2023-12-20T02:34:17;11.4;;;3.1;;
81815;SDS011;71249;52.084;5.304;2023-12-20T02:35:53;15.3;;;2.7;;
81815;SDS011;71249;52.084;5.304;2023-12-20T02:39:05;11.8;;;3.1;;
81815;SDS011;71249;52.084;5.304;2023-12-20T02:40:41;13.9;;;3.1;;
81815;SDS011;71249;52.084;5.304;2023-12-20T02:42:17;13.8;;;3.1;;
81815;SDS011;71249;52.084;5.304;2023-12-20T02:45:30;15.2;;;3.2;;
81815;SDS011;71249;52.084;5.304;2023-12-20T02:47:06;13.5;;;2.9;;
81815;SDS011;71249;52.084;5.304;2023-12-20T02:48:42;11.9;;;2.8;;
81815;SDS011;71249;52.084;5.304;2023-12-20T02:50:18;12.9;;;3.3;;
81815;SDS011;71249;52.084;5.304;2023-12-20T02:53:30;19.5;;;5.0;;
81815;SDS011;71249;52.084;5.304;2023-12-20T02:55:06;25.0;;;5.11;;
81815;SDS011;71249;52.084;5.304;2023-12-20T02:56:45;14.7;;;3.3;;
81815;SDS011;71249;52.084;5.304;2023-12-20T02:59:58;13.7;;;3.3;;
81815;SDS011;71249;52.084;5.304;2023-12-20T03:01:34;14.5;;;3.3;;
81815;SDS011;71249;52.084;5.304;2023-12-20T03:03:11;14.7;;;3.3;;
81815;SDS011;71249;52.084;5.304;2023-12-20T03:06:23;16.61;;;4.41;;
81815;SDS011;71249;52.084;5.304;2023-12-20T03:08:03;18.2;;;3.8;;
81815;SDS011;71249;52.084;5.304;2023-12-20T03:09:40;15.7;;;3.1;;
81815;SDS011;71249;52.084;5.304;2023-12-20T03:11:16;18.8;;;4.3;;
81815;SDS011;71249;52.084;5.304;2023-12-20T03:14:28;22.4;;;4.41;;
81815;SDS011;71249;52.084;5.304;2023-12-20T03:16:07;16.11;;;4.61;;
81815;SDS011;71249;52.084;5.304;2023-12-20T03:17:44;16.2;;;4.0;;
81815;SDS011;71249;52.084;5.304;2023-12-20T03:20:57;20.41;;;4.7;;
81815;SDS011;71249;52.084;5.304;2023-12-20T03:22:33;21.5;;;4.5;;
81815;SDS011;71249;52.084;5.304;2023-12-20T03:24:09;20.11;;;4.5;;
81815;SDS011;71249;52.084;5.304;2023-12-20T03:25:45;21.2;;;5.2;;
81815;SDS011;71249;52.084;5.304;2023-12-20T03:28:57;22.5;;;5.3;;
81815;SDS011;71249;52.084;5.304;2023-12-20T03:30:36;23.1;;;5.4;;
81815;SDS011;71249;52.084;5.304;2023-12-20T03:32:12;18.7;;;4.3;;
81815;SDS011;71249;52.084;5.304;2023-12-20T03:35:24;21.4;;;4.61;;
81815;SDS011;71249;52.084;5.304;2023-12-20T03:37:00;19.8;;;4.1;;
81815;SDS011;71249;52.084;5.304;2023-12-20T03:38:37;19.7;;;4.1;;
81815;SDS011;71249;52.084;5.304;2023-12-20T03:41:49;21.1;;;4.91;;
81815;SDS011;71249;52.084;5.304;2023-12-20T03:43:25;27.4;;;5.11;;
81815;SDS011;71249;52.084;5.304;2023-12-20T03:45:01;24.3;;;5.7;;
81815;SDS011;71249;52.084;5.304;2023-12-20T03:48:13;28.0;;;6.4;;
81815;SDS011;71249;52.084;5.304;2023-12-20T03:49:49;23.7;;;5.9;;
81815;SDS011;71249;52.084;5.304;2023-12-20T03:51:25;22.7;;;5.2;;
81815;SDS011;71249;52.084;5.304;2023-12-20T03:53:04;21.9;;;4.61;;
81815;SDS011;71249;52.084;5.304;2023-12-20T03:56:17;24.0;;;4.61;;
81815;SDS011;71249;52.084;5.304;2023-12-20T03:57:53;24.7;;;5.3;;
81815;SDS011;71249;52.084;5.304;2023-12-20T03:59:29;22.8;;;5.5;;
81815;SDS011;71249;52.084;5.304;2023-12-20T04:02:45;22.8;;;5.6;;
81815;SDS011;71249;52.084;5.304;2023-12-20T04:04:21;26.6;;;5.0;;
81815;SDS011;71249;52.084;5.304;2023-12-20T04:05:57;21.6;;;4.61;;
81815;SDS011;71249;52.084;5.304;2023-12-20T04:09:11;22.1;;;5.11;;
81815;SDS011;71249;52.084;5.304;2023-12-20T04:10:48;24.3;;;5.3;;
81815;SDS011;71249;52.084;5.304;2023-12-20T04:12:24;24.0;;;5.11;;
81815;SDS011;71249;52.084;5.304;2023-12-20T04:14:00;23.3;;;4.7;;
81815;SDS011;71249;52.084;5.304;2023-12-20T04:17:13;17.11;;;4.2;;
81815;SDS011;71249;52.084;5.304;2023-12-20T04:18:50;24.7;;;5.4;;
81815;SDS011;71249;52.084;5.304;2023-12-20T04:20:26;20.0;;;4.7;;
81815;SDS011;71249;52.084;5.304;2023-12-20T04:23:38;22.2;;;4.91;;
81815;SDS011;71249;52.084;5.304;2023-12-20T04:26:50;25.0;;;5.4;;
81815;SDS011;71249;52.084;5.304;2023-12-20T04:30:03;26.2;;;5.7;;
81815;SDS011;71249;52.084;5.304;2023-12-20T04:31:40;18.61;;;4.91;;
81815;SDS011;71249;52.084;5.304;2023-12-20T04:33:16;22.8;;;4.5;;
81815;SDS011;71249;52.084;5.304;2023-12-20T04:34:52;21.1;;;5.6;;
81815;SDS011;71249;52.084;5.304;2023-12-20T04:38:04;26.7;;;5.6;;
81815;SDS011;71249;52.084;5.304;2023-12-20T04:39:40;26.9;;;5.5;;
81815;SDS011;71249;52.084;5.304;2023-12-20T04:41:16;22.6;;;5.3;;
81815;SDS011;71249;52.084;5.304;2023-12-20T04:44:29;21.8;;;5.2;;
81815;SDS011;71249;52.084;5.304;2023-12-20T04:46:05;24.7;;;4.8;;
81815;SDS011;71249;52.084;5.304;2023-12-20T04:47:41;21.0;;;5.11;;
81815;SDS011;71249;52.084;5.304;2023-12-20T04:50:54;22.6;;;5.3;;
81815;SDS011;71249;52.084;5.304;2023-12-20T04:52:30;26.9;;;4.91;;
81815;SDS011;71249;52.084;5.304;2023-12-20T04:54:06;27.3;;;5.11;;
81815;SDS011;71249;52.084;5.304;2023-12-20T04:55:42;18.61;;;4.61;;
81815;SDS011;71249;52.084;5.304;2023-12-20T04:58:55;27.0;;;5.5;;
81815;SDS011;71249;52.084;5.304;2023-12-20T05:00:31;21.1;;;4.61;;
81815;SDS011;71249;52.084;5.304;2023-12-20T05:02:07;19.91;;;4.7;;
81815;SDS011;71249;52.084;5.304;2023-12-20T05:05:19;21.8;;;4.91;;
81815;SDS011;71249;52.084;5.304;2023-12-20T05:06:56;24.9;;;5.8;;
81815;SDS011;71249;52.084;5.304;2023-12-20T05:08:32;21.3;;;5.3;;
81815;SDS011;71249;52.084;5.304;2023-12-20T05:11:45;21.8;;;4.5;;
81815;SDS011;71249;52.084;5.304;2023-12-20T05:13:21;23.7;;;4.91;;
81815;SDS011;71249;52.084;5.304;2023-12-20T05:14:58;23.7;;;4.91;;
81815;SDS011;71249;52.084;5.304;2023-12-20T05:18:11;23.9;;;5.7;;
81815;SDS011;71249;52.084;5.304;2023-12-20T05:19:47;18.91;;;4.7;;
81815;SDS011;71249;52.084;5.304;2023-12-20T05:21:23;19.7;;;5.4;;
81815;SDS011;71249;52.084;5.304;2023-12-20T05:23:02;19.11;;;5.11;;
81815;SDS011;71249;52.084;5.304;2023-12-20T05:26:14;21.6;;;5.2;;
81815;SDS011;71249;52.084;5.304;2023-12-20T05:27:50;22.7;;;5.2;;
81815;SDS011;71249;52.084;5.304;2023-12-20T05:29:26;27.0;;;5.7;;
81815;SDS011;71249;52.084;5.304;2023-12-20T05:32:38;22.0;;;5.0;;
81815;SDS011;71249;52.084;5.304;2023-12-20T05:34:14;28.1;;;5.8;;
81815;SDS011;71249;52.084;5.304;2023-12-20T05:35:50;22.4;;;5.3;;
81815;SDS011;71249;52.084;5.304;2023-12-20T05:39:02;22.1;;;5.2;;
81815;SDS011;71249;52.084;5.304;2023-12-20T05:40:39;25.3;;;5.4;;
81815;SDS011;71249;52.084;5.304;2023-12-20T05:42:15;25.1;;;5.6;;
81815;SDS011;71249;52.084;5.304;2023-12-20T05:43:51;22.2;;;5.0;;
81815;SDS011;71249;52.084;5.304;2023-12-20T05:47:03;21.7;;;5.11;;
81815;SDS011;71249;52.084;5.304;2023-12-20T05:48:39;24.3;;;5.5;;
81815;SDS011;71249;52.084;5.304;2023-12-20T05:50:15;24.6;;;6.0;;
81815;SDS011;71249;52.084;5.304;2023-12-20T05:53:28;21.7;;;5.4;;
81815;SDS011;71249;52.084;5.304;2023-12-20T05:55:04;24.1;;;4.8;;
81815;SDS011;71249;52.084;5.304;2023-12-20T05:56:40;21.9;;;4.7;;
81815;SDS011;71249;52.084;5.304;2023-12-20T05:59:52;24.8;;;5.3;;
81815;SDS011;71249;52.084;5.304;2023-12-20T06:01:28;23.5;;;4.7;;
81815;SDS011;71249;52.084;5.304;2023-12-20T06:03:04;23.2;;;5.11;;
81815;SDS011;71249;52.084;5.304;2023-12-20T06:06:17;21.9;;;5.6;;
81815;SDS011;71249;52.084;5.304;2023-12-20T06:07:53;27.6;;;5.8;;
81815;SDS011;71249;52.084;5.304;2023-12-20T06:09:29;25.1;;;5.3;;
81815;SDS011;71249;52.084;5.304;2023-12-20T06:11:06;21.9;;;4.8;;
81815;SDS011;71249;52.084;5.304;2023-12-20T06:14:18;22.6;;;4.91;;
81815;SDS011;71249;52.084;5.304;2023-12-20T06:15:54;19.11;;;4.8;;
81815;SDS011;71249;52.084;5.304;2023-12-20T06:17:30;18.7;;;5.2;;
81815;SDS011;71249;52.084;5.304;2023-12-20T06:20:45;20.2;;;5.0;;
81815;SDS011;71249;52.084;5.304;2023-12-20T06:22:21;20.11;;;5.0;;
81815;SDS011;71249;52.084;5.304;2023-12-20T06:23:58;25.0;;;5.7;;
81815;SDS011;71249;52.084;5.304;2023-12-20T06:27:11;21.2;;;4.91;;
81815;SDS011;71249;52.084;5.304;2023-12-20T06:28:47;23.0;;;5.0;;
81815;SDS011;71249;52.084;5.304;2023-12-20T06:30:23;20.7;;;5.2;;
81815;SDS011;71249;52.084;5.304;2023-12-20T06:31:59;23.4;;;5.0;;
81815;SDS011;71249;52.084;5.304;2023-12-20T06:35:12;19.5;;;4.41;;
81815;SDS011;71249;52.084;5.304;2023-12-20T06:36:48;22.2;;;5.11;;
81815;SDS011;71249;52.084;5.304;2023-12-20T06:38:24;20.41;;;4.7;;
81815;SDS011;71249;52.084;5.304;2023-12-20T06:41:39;20.8;;;4.7;;
81815;SDS011;71249;52.084;5.304;2023-12-20T06:43:15;20.2;;;4.61;;
81815;SDS011;71249;52.084;5.304;2023-12-20T06:44:51;25.1;;;5.7;;
81815;SDS011;71249;52.084;5.304;2023-12-20T06:48:04;23.2;;;5.7;;
81815;SDS011;71249;52.084;5.304;2023-12-20T06:49:41;21.7;;;4.7;;
81815;SDS011;71249;52.084;5.304;2023-12-20T06:51:17;23.4;;;5.7;;
81815;SDS011;71249;52.084;5.304;2023-12-20T06:52:56;21.6;;;5.0;;
81815;SDS011;71249;52.084;5.304;2023-12-20T06:56:09;20.9;;;4.8;;
81815;SDS011;71249;52.084;5.304;2023-12-20T06:57:46;18.5;;;4.7;;
81815;SDS011;71249;52.084;5.304;2023-12-20T06:59:23;24.2;;;5.3;;
81815;SDS011;71249;52.084;5.304;2023-12-20T07:02:35;24.4;;;5.7;;
81815;SDS011;71249;52.084;5.304;2023-12-20T07:04:14;20.9;;;5.2;;
81815;SDS011;71249;52.084;5.304;2023-12-20T07:05:50;18.61;;;4.7;;
81815;SDS011;71249;52.084;5.304;2023-12-20T07:09:02;22.5;;;4.8;;
81815;SDS011;71249;52.084;5.304;2023-12-20T07:10:38;21.6;;;4.7;;
81815;SDS011;71249;52.084;5.304;2023-12-20T07:12:14;18.5;;;4.8;;
81815;SDS011;71249;52.084;5.304;2023-12-20T07:13:50;18.61;;;5.11;;
81815;SDS011;71249;52.084;5.304;2023-12-20T07:17:06;20.0;;;4.7;;
81815;SDS011;71249;52.084;5.304;2023-12-20T07:18:42;21.9;;;5.11;;
81815;SDS011;71249;52.084;5.304;2023-12-20T07:20:18;24.4;;;5.3;;
81815;SDS011;71249;52.084;5.304;2023-12-20T07:23:30;20.5;;;4.91;;
81815;SDS011;71249;52.084;5.304;2023-12-20T07:25:06;21.7;;;5.0;;
81815;SDS011;71249;52.084;5.304;2023-12-20T07:26:46;24.7;;;5.7;;
81815;SDS011;71249;52.084;5.304;2023-12-20T07:29:58;22.5;;;5.5;;
81815;SDS011;71249;52.084;5.304;2023-12-20T07:31:35;24.7;;;5.11;;
81815;SDS011;71249;52.084;5.304;2023-12-20T07:33:11;26.2;;;4.91;;
81815;SDS011;71249;52.084;5.304;2023-12-20T07:34:47;22.7;;;5.5;;
81815;SDS011;71249;52.084;5.304;2023-12-20T07:38:02;23.6;;;5.5;;
81815;SDS011;71249;52.084;5.304;2023-12-20T07:39:38;21.2;;;4.8;;
81815;SDS011;71249;52.084;5.304;2023-12-20T07:41:15;24.6;;;5.9;;
81815;SDS011;71249;52.084;5.304;2023-12-20T07:44:27;23.8;;;5.5;;
81815;SDS011;71249;52.084;5.304;2023-12-20T07:46:04;20.2;;;5.0;;
81815;SDS011;71249;52.084;5.304;2023-12-20T07:47:40;27.0;;;5.5;;
81815;SDS011;71249;52.084;5.304;2023-12-20T07:50:52;21.8;;;5.2;;
81815;SDS011;71249;52.084;5.304;2023-12-20T07:52:29;22.8;;;5.6;;
81815;SDS011;71249;52.084;5.304;2023-12-20T07:54:05;16.9;;;5.0;;
81815;SDS011;71249;52.084;5.304;2023-12-20T07:55:41;22.0;;;5.6;;
81815;SDS011;71249;52.084;5.304;2023-12-20T07:58:53;24.0;;;6.0;;
81815;SDS011;71249;52.084;5.304;2023-12-20T08:00:29;24.3;;;6.1;;
81815;SDS011;71249;52.084;5.304;2023-12-20T08:02:05;24.3;;;5.6;;
81815;SDS011;71249;52.084;5.304;2023-12-20T08:05:17;25.5;;;5.3;;
81815;SDS011;71249;52.084;5.304;2023-12-20T08:06:53;25.5;;;5.3;;
81815;SDS011;71249;52.084;5.304;2023-12-20T08:08:30;25.7;;;7.4;;
81815;SDS011;71249;52.084;5.304;2023-12-20T08:11:44;25.8;;;6.4;;
81815;SDS011;71249;52.084;5.304;2023-12-20T08:13:21;20.5;;;5.2;;
81815;SDS011;71249;52.084;5.304;2023-12-20T08:14:57;21.1;;;5.9;;
81815;SDS011;71249;52.084;5.304;2023-12-20T08:16:33;24.6;;;5.4;;
81815;SDS011;71249;52.084;5.304;2023-12-20T08:19:45;21.8;;;5.8;;
81815;SDS011;71249;52.084;5.304;2023-12-20T08:21:21;26.8;;;6.2;;
81815;SDS011;71249;52.084;5.304;2023-12-20T08:22:58;19.11;;;5.2;;
81815;SDS011;71249;52.084;5.304;2023-12-20T08:26:10;26.3;;;5.9;;
81815;SDS011;71249;52.084;5.304;2023-12-20T08:27:46;26.3;;;5.9;;
81815;SDS011;71249;52.084;5.304;2023-12-20T08:29:22;24.1;;;5.6;;
81815;SDS011;71249;52.084;5.304;2023-12-20T08:32:34;25.4;;;6.6;;
81815;SDS011;71249;52.084;5.304;2023-12-20T08:34:13;19.61;;;5.4;;
81815;SDS011;71249;52.084;5.304;2023-12-20T08:35:49;27.3;;;6.4;;
81815;SDS011;71249;52.084;5.304;2023-12-20T08:39:02;21.6;;;5.4;;
81815;SDS011;71249;52.084;5.304;2023-12-20T08:40:38;22.3;;;6.5;;
81815;SDS011;71249;52.084;5.304;2023-12-20T08:42:14;25.2;;;7.1;;
81815;SDS011;71249;52.084;5.304;2023-12-20T08:43:50;21.7;;;5.3;;
81815;SDS011;71249;52.084;5.304;2023-12-20T08:47:02;24.8;;;6.3;;
81815;SDS011;71249;52.084;5.304;2023-12-20T08:48:39;19.2;;;5.8;;
81815;SDS011;71249;52.084;5.304;2023-12-20T08:50:15;27.8;;;5.5;;
81815;SDS011;71249;52.084;5.304;2023-12-20T08:53:27;22.6;;;5.2;;
81815;SDS011;71249;52.084;5.304;2023-12-20T08:55:04;25.2;;;6.1;;
81815;SDS011;71249;52.084;5.304;2023-12-20T08:56:40;19.5;;;5.4;;
81815;SDS011;71249;52.084;5.304;2023-12-20T08:59:53;23.4;;;5.4;;
81815;SDS011;71249;52.084;5.304;2023-12-20T09:01:29;21.2;;;5.6;;
81815;SDS011;71249;52.084;5.304;2023-12-20T09:03:05;23.2;;;5.7;;
81815;SDS011;71249;52.084;5.304;2023-12-20T09:04:41;22.0;;;5.11;;
81815;SDS011;71249;52.084;5.304;2023-12-20T09:07:54;19.41;;;4.8;;
81815;SDS011;71249;52.084;5.304;2023-12-20T09:09:30;21.1;;;5.6;;
81815;SDS011;71249;52.084;5.304;2023-12-20T09:11:07;21.1;;;4.7;;
81815;SDS011;71249;52.084;5.304;2023-12-20T09:14:19;22.8;;;5.3;;
81815;SDS011;71249;52.084;5.304;2023-12-20T09:15:55;24.2;;;5.2;;
81815;SDS011;71249;52.084;5.304;2023-12-20T09:17:31;20.0;;;4.7;;
81815;SDS011;71249;52.084;5.304;2023-12-20T09:20:46;17.61;;;5.11;;
81815;SDS011;71249;52.084;5.304;2023-12-20T09:22:22;23.5;;;5.2;;
81815;SDS011;71249;52.084;5.304;2023-12-20T09:23:58;21.7;;;4.8;;
81815;SDS011;71249;52.084;5.304;2023-12-20T09:25:34;24.4;;;5.2;;
81815;SDS011;71249;52.084;5.304;2023-12-20T09:28:47;22.9;;;5.11;;
81815;SDS011;71249;52.084;5.304;2023-12-20T09:30:23;20.6;;;4.7;;
81815;SDS011;71249;52.084;5.304;2023-12-20T09:31:59;22.3;;;5.5;;
81815;SDS011;71249;52.084;5.304;2023-12-20T09:35:12;24.1;;;5.7;;
81815;SDS011;71249;52.084;5.304;2023-12-20T09:36:48;21.6;;;4.7;;
81815;SDS011;71249;52.084;5.304;2023-12-20T09:38:24;19.3;;;4.5;;
81815;SDS011;71249;52.084;5.304;2023-12-20T09:41:40;24.4;;;5.11;;
81815;SDS011;71249;52.084;5.304;2023-12-20T09:43:20;22.6;;;4.8;;
81815;SDS011;71249;52.084;5.304;2023-12-20T09:45:00;24.2;;;5.8;;
81815;SDS011;71249;52.084;5.304;2023-12-20T09:46:38;19.3;;;4.2;;
81815;SDS011;71249;52.084;5.304;2023-12-20T09:49:55;19.91;;;4.0;;
81815;SDS011;71249;52.084;5.304;2023-12-20T09:51:32;23.7;;;5.7;;
81815;SDS011;71249;52.084;5.304;2023-12-20T09:53:14;20.9;;;4.7;;
81815;SDS011;71249;52.084;5.304;2023-12-20T09:54:53;21.6;;;5.0;;
81815;SDS011;71249;52.084;5.304;2023-12-20T09:58:08;22.4;;;5.3;;
81815;SDS011;71249;52.084;5.304;2023-12-20T09:59:44;19.8;;;4.8;;
81815;SDS011;71249;52.084;5.304;2023-12-20T10:01:20;19.7;;;4.7;;
81815;SDS011;71249;52.084;5.304;2023-12-20T10:04:36;26.2;;;5.2;;
81815;SDS011;71249;52.084;5.304;2023-12-20T10:06:12;22.8;;;5.2;;
81815;SDS011;71249;52.084;5.304;2023-12-20T10:07:48;20.7;;;5.0;;
81815;SDS011;71249;52.084;5.304;2023-12-20T10:11:00;20.3;;;4.8;;
81815;SDS011;71249;52.084;5.304;2023-12-20T10:12:36;25.2;;;5.2;;
81815;SDS011;71249;52.084;5.304;2023-12-20T10:14:12;19.91;;;4.91;;
81815;SDS011;71249;52.084;5.304;2023-12-20T10:15:51;20.6;;;4.61;;
81815;SDS011;71249;52.084;5.304;2023-12-20T10:19:04;19.0;;;4.41;;
81815;SDS011;71249;52.084;5.304;2023-12-20T10:20:40;19.11;;;4.5;;
81815;SDS011;71249;52.084;5.304;2023-12-20T10:22:17;23.5;;;5.4;;
81815;SDS011;71249;52.084;5.304;2023-12-20T10:25:30;20.3;;;4.7;;
81815;SDS011;71249;52.084;5.304;2023-12-20T10:27:07;24.9;;;5.4;;
81815;SDS011;71249;52.084;5.304;2023-12-20T10:28:44;21.1;;;5.0;;
81815;SDS011;71249;52.084;5.304;2023-12-20T10:31:56;23.4;;;5.2;;
81815;SDS011;71249;52.084;5.304;2023-12-20T10:33:32;20.41;;;5.0;;
81815;SDS011;71249;52.084;5.304;2023-12-20T10:35:08;21.1;;;4.41;;
81815;SDS011;71249;52.084;5.304;2023-12-20T10:36:45;22.6;;;5.2;;
81815;SDS011;71249;52.084;5.304;2023-12-20T10:39:57;22.6;;;5.2;;
81815;SDS011;71249;52.084;5.304;2023-12-20T10:41:38;18.3;;;5.4;;
81815;SDS011;71249;52.084;5.304;2023-12-20T10:43:15;21.6;;;4.91;;
81815;SDS011;71249;52.084;5.304;2023-12-20T10:46:29;17.5;;;4.7;;
81815;SDS011;71249;52.084;5.304;2023-12-20T10:48:06;20.0;;;4.3;;
81815;SDS011;71249;52.084;5.304;2023-12-20T10:49:43;18.11;;;5.3;;
81815;SDS011;71249;52.084;5.304;2023-12-20T10:51:21;24.4;;;4.41;;
81815;SDS011;71249;52.084;5.304;2023-12-20T10:54:35;23.4;;;4.8;;
81815;SDS011;71249;52.084;5.304;2023-12-20T10:56:11;20.41;;;4.5;;
81815;SDS011;71249;52.084;5.304;2023-12-20T10:57:51;20.7;;;4.8;;
81815;SDS011;71249;52.084;5.304;2023-12-20T11:01:12;19.2;;;4.8;;
81815;SDS011;71249;52.084;5.304;2023-12-20T11:02:49;18.61;;;4.5;;
81815;SDS011;71249;52.084;5.304;2023-12-20T11:04:28;18.91;;;4.7;;
81815;SDS011;71249;52.084;5.304;2023-12-20T11:06:18;19.5;;;4.5;;
81815;SDS011;71249;52.084;5.304;2023-12-20T11:09:59;22.4;;;4.91;;
81815;SDS011;71249;52.084;5.304;2023-12-20T11:11:56;20.41;;;5.4;;
81815;SDS011;71249;52.084;5.304;2023-12-20T11:13:40;17.61;;;4.1;;
81815;SDS011;71249;52.084;5.304;2023-12-20T11:15:24;20.0;;;4.41;;
81815;SDS011;71249;52.084;5.304;2023-12-20T11:17:05;17.8;;;4.3;;
81815;SDS011;71249;52.084;5.304;2023-12-20T11:18:44;20.8;;;4.7;;
81815;SDS011;71249;52.084;5.304;2023-12-20T11:21:59;19.11;;;4.41;;
81815;SDS011;71249;52.084;5.304;2023-12-20T11:23:35;20.41;;;5.11;;
81815;SDS011;71249;52.084;5.304;2023-12-20T11:25:12;19.5;;;4.41;;
81815;SDS011;71249;52.084;5.304;2023-12-20T11:28:24;19.5;;;4.41;;
81815;SDS011;71249;52.084;5.304;2023-12-20T11:30:02;18.41;;;4.1;;
81815;SDS011;71249;52.084;5.304;2023-12-20T11:31:40;18.11;;;4.1;;
81815;SDS011;71249;52.084;5.304;2023-12-20T11:33:22;20.5;;;5.4;;
81815;SDS011;71249;52.084;5.304;2023-12-20T11:36:56;19.11;;;4.3;;
81815;SDS011;71249;52.084;5.304;2023-12-20T11:38:35;15.2;;;4.1;;
81815;SDS011;71249;52.084;5.304;2023-12-20T11:40:13;19.0;;;4.5;;
81815;SDS011;71249;52.084;5.304;2023-12-20T11:41:51;20.41;;;4.61;;
81815;SDS011;71249;52.084;5.304;2023-12-20T11:45:08;14.6;;;3.9;;
81815;SDS011;71249;52.084;5.304;2023-12-20T11:46:44;15.9;;;4.3;;
81815;SDS011;71249;52.084;5.304;2023-12-20T11:48:20;18.11;;;4.3;;
81815;SDS011;71249;52.084;5.304;2023-12-20T11:49:56;18.8;;;4.61;;
81815;SDS011;71249;52.084;5.304;2023-12-20T11:53:09;19.8;;;4.61;;
81815;SDS011;71249;52.084;5.304;2023-12-20T11:54:46;22.1;;;4.41;;
81815;SDS011;71249;52.084;5.304;2023-12-20T11:56:22;17.11;;;4.3;;
81815;SDS011;71249;52.084;5.304;2023-12-20T11:59:34;20.11;;;4.61;;
81815;SDS011;71249;52.084;5.304;2023-12-20T12:01:13;13.5;;;3.6;;
81815;SDS011;71249;52.084;5.304;2023-12-20T12:02:55;18.8;;;4.41;;
81815;SDS011;71249;52.084;5.304;2023-12-20T12:04:32;16.9;;;4.8;;
81815;SDS011;71249;52.084;5.304;2023-12-20T12:07:45;17.3;;;4.61;;
81815;SDS011;71249;52.084;5.304;2023-12-20T12:09:21;17.7;;;4.5;;
81815;SDS011;71249;52.084;5.304;2023-12-20T12:10:57;19.7;;;4.3;;
81815;SDS011;71249;52.084;5.304;2023-12-20T12:14:09;17.0;;;3.7;;
81815;SDS011;71249;52.084;5.304;2023-12-20T12:15:45;17.11;;;4.3;;
81815;SDS011;71249;52.084;5.304;2023-12-20T12:17:21;19.2;;;4.7;;
81815;SDS011;71249;52.084;5.304;2023-12-20T12:20:34;14.6;;;3.9;;
81815;SDS011;71249;52.084;5.304;2023-12-20T12:22:11;17.5;;;4.1;;
81815;SDS011;71249;52.084;5.304;2023-12-20T12:23:49;18.3;;;4.5;;
81815;SDS011;71249;52.084;5.304;2023-12-20T12:27:02;14.9;;;4.41;;
81815;SDS011;71249;52.084;5.304;2023-12-20T12:28:39;16.3;;;4.3;;
81815;SDS011;71249;52.084;5.304;2023-12-20T12:30:16;18.7;;;3.8;;
81815;SDS011;71249;52.084;5.304;2023-12-20T12:31:52;15.7;;;3.7;;
81815;SDS011;71249;52.084;5.304;2023-12-20T12:35:05;20.8;;;4.41;;
81815;SDS011;71249;52.084;5.304;2023-12-20T12:36:41;16.7;;;4.5;;
81815;SDS011;71249;52.084;5.304;2023-12-20T12:38:19;17.8;;;3.9;;
81815;SDS011;71249;52.084;5.304;2023-12-20T12:41:35;23.9;;;4.7;;
81815;SDS011;71249;52.084;5.304;2023-12-20T12:43:11;16.11;;;4.2;;
81815;SDS011;71249;52.084;5.304;2023-12-20T12:44:47;15.0;;;4.1;;
81815;SDS011;71249;52.084;5.304;2023-12-20T12:46:23;20.2;;;3.6;;